Portada
METAR-TAF:

METAR-TAF

Aeropuertos :

Aeropuerto Internacional de Sunan

Pionyang, Corea del Norte

latitud: 39-02N, longitud: 125-47E, altitud: 36 m

METAR: falta

Hora: 18:03 (09:33 UTC)

Pronóstico

El informe se hizo hace 5 horas y 23 minutos, a las 04:10 UTC
Pronóstico válido del 19 a las 06 UTC al 20 a las 06 UTC
Viento 8 kt del noroeste
Visibilidad 10 km o más
sin nubes por debajo de 1500 m y sin presencia de cumulonimbus.
Temporalmente
del 19 a las 18 UTC al 19 a las 24 UTC
Visibilidad: 4000 m
neblina
Evolucionando progresivamente
del 20 a las 00 UTC al 20 a las 02 UTC
Viento 10 kt del suroeste
Cielo cubierto a una altura de 2300 ft

TAF: ZKPY 190410Z 1906/2006 31004MPS CAVOK TX11/1906Z TNM04/1921Z TEMPO 1918/1924 4000 BR BECMG 2000/2002 23005MPS OVC023

Observaciones y pronósticos meteorológicos de más de 4000 aeropuertos (mensajes METAR y TAF).

Los puntos amarillos y rojos representan las estaciones disponibles.

Ponga el ratón en el punto deseado para ver el nombre de la estación.

Haga clic para ver las observaciones y los pronósticos meteorológicos.

Para cambiar el mapa : haga clic en los botones verdes con una cruz de color negro para hacer un zoom, en el botón verde con un guión para alejar o en las flechas verdes para mapas adyacentes.


METAR-TAF: